createdAt,value
2019-06-07T00:01:29.605Z,60.68
2019-06-07T00:03:56.419Z,60.37
2019-06-07T00:06:25.635Z,60.02
2019-06-07T00:08:51.647Z,59.71
2019-06-07T00:11:20.511Z,59.82
2019-06-07T00:13:46.994Z,60.01
2019-06-07T00:16:14.959Z,60.10
2019-06-07T00:18:42.318Z,59.94
2019-06-07T00:21:10.023Z,60.25
2019-06-07T00:23:36.889Z,60.46
2019-06-07T00:26:04.126Z,60.83
2019-06-07T00:28:30.845Z,60.93
2019-06-07T00:30:57.596Z,60.92
2019-06-07T00:33:25.230Z,60.73
2019-06-07T00:35:52.137Z,60.88
2019-06-07T00:38:20.446Z,61.08
2019-06-07T00:40:47.509Z,61.35
2019-06-07T00:43:17.581Z,61.45
2019-06-07T00:45:42.793Z,61.25
2019-06-07T00:48:16.189Z,61.04
2019-06-07T00:50:38.268Z,60.89
2019-06-07T00:53:17.271Z,61.00
2019-06-07T00:55:33.598Z,60.98
2019-06-07T00:58:00.311Z,60.93
2019-06-07T01:00:27.055Z,60.86
2019-06-07T01:02:53.822Z,60.65
2019-06-07T01:05:28.555Z,60.64
2019-06-07T01:07:49.105Z,60.54
2019-06-07T01:10:22.883Z,60.52
2019-06-07T01:12:45.744Z,60.54
2019-06-07T01:15:15.789Z,60.65
2019-06-07T01:18:25.950Z,60.52
2019-06-07T01:20:12.867Z,60.56
2019-06-07T01:22:40.857Z,60.69
2019-06-07T01:25:08.424Z,60.73
2019-06-07T01:27:35.208Z,60.70
2019-06-07T01:30:08.107Z,60.46
2019-06-07T01:32:34.881Z,60.72
2019-06-07T01:35:01.908Z,61.01
2019-06-07T01:37:30.297Z,61.02
2019-06-07T01:39:57.235Z,61.09
2019-06-07T01:42:25.314Z,61.04
2019-06-07T01:44:52.512Z,60.75
2019-06-07T01:47:21.270Z,61.00
2019-06-07T01:49:47.882Z,61.04
2019-06-07T01:52:14.622Z,60.95
2019-06-07T01:54:56.762Z,60.96
2019-06-07T01:57:30.538Z,61.06
2019-06-07T01:59:38.555Z,61.27
2019-06-07T02:02:05.358Z,61.35
2019-06-07T02:04:33.468Z,61.54
2019-06-07T02:07:00.409Z,61.53
2019-06-07T02:09:29.845Z,61.31
2019-06-07T02:11:55.843Z,61.24
2019-06-07T02:14:25.743Z,61.21
2019-06-07T02:16:51.269Z,61.51
2019-06-07T02:19:17.998Z,61.60
2019-06-07T02:21:44.743Z,61.67
2019-06-07T02:24:11.624Z,61.60
2019-06-07T02:26:38.402Z,61.68
2019-06-07T02:29:05.143Z,61.79
2019-06-07T02:31:38.571Z,61.78
2019-06-07T02:34:00.526Z,61.65
2019-06-07T02:36:30.490Z,61.67
2019-06-07T02:38:55.846Z,61.74
2019-06-07T02:41:25.832Z,61.63
2019-06-07T02:43:51.120Z,61.63
2019-06-07T02:46:26.395Z,61.64
2019-06-07T02:48:46.556Z,61.67
2019-06-07T02:51:13.415Z,61.47
2019-06-07T02:53:40.517Z,61.50
2019-06-07T02:58:41.537Z,61.63
2019-06-07T03:01:09.075Z,61.63
2019-06-07T03:03:39.599Z,61.59
2019-06-07T03:06:02.578Z,61.23
2019-06-07T03:08:35.423Z,61.11
2019-06-07T03:11:01.878Z,61.28
2019-06-07T03:13:34.976Z,61.52
2019-06-07T03:16:04.523Z,61.67
2019-06-07T03:18:32.179Z,61.77
2019-06-07T03:21:05.329Z,61.78
2019-06-07T03:23:30.682Z,61.67
2019-06-07T03:25:58.122Z,61.47
2019-06-07T03:28:25.030Z,61.36
2019-06-07T03:31:01.632Z,61.30
2019-06-07T03:33:20.422Z,61.27
2019-06-07T03:35:47.309Z,61.28
2019-06-07T03:38:14.023Z,61.25
2019-06-07T03:40:40.752Z,61.16
2019-06-07T03:43:07.643Z,61.17
2019-06-07T03:45:37.857Z,61.10
2019-06-07T03:48:02.921Z,61.20
2019-06-07T03:50:33.410Z,61.48
2019-06-07T03:52:58.250Z,61.68
2019-06-07T03:55:24.964Z,61.69
2019-06-07T04:00:20.657Z,61.70
2019-06-07T04:02:47.378Z,61.50
2019-06-07T04:05:14.185Z,61.51
2019-06-07T04:07:44.430Z,61.34
2019-06-07T04:10:09.636Z,61.24
2019-06-07T04:12:41.352Z,61.45
2019-06-07T04:15:05.374Z,61.51
2019-06-07T04:17:33.786Z,61.53
2019-06-07T04:20:00.712Z,61.38
2019-06-07T04:22:28.840Z,61.38
2019-06-07T04:24:56.796Z,61.41
2019-06-07T04:27:23.632Z,61.54
2019-06-07T04:30:06.366Z,61.81
2019-06-07T04:32:18.982Z,61.91
2019-06-07T04:34:45.854Z,61.80
2019-06-07T04:37:12.974Z,61.84
2019-06-07T04:39:44.558Z,61.80
2019-06-07T04:42:11.677Z,61.89
2019-06-07T04:44:42.556Z,61.95
2019-06-07T04:47:10.781Z,61.88
2019-06-07T04:49:43.426Z,61.79
2019-06-07T04:52:10.528Z,61.96
2019-06-07T04:54:38.569Z,61.91
2019-06-07T04:57:05.824Z,61.85
2019-06-07T05:00:05.532Z,61.61
2019-06-07T05:02:01.080Z,61.46
2019-06-07T05:04:28.984Z,61.44
2019-06-07T05:06:56.457Z,61.31
2019-06-07T05:09:23.144Z,61.49
2019-06-07T05:11:50.016Z,61.52
2019-06-07T05:14:16.757Z,61.45
2019-06-07T05:16:44.540Z,61.39
2019-06-07T05:19:11.722Z,61.38
2019-06-07T05:21:54.197Z,61.59
2019-06-07T05:24:10.374Z,61.69
2019-06-07T05:26:40.520Z,61.69
2019-06-07T05:29:07.217Z,61.62
2019-06-07T05:31:36.828Z,61.55
2019-06-07T05:34:03.227Z,61.42
2019-06-07T05:36:36.691Z,61.42
2019-06-07T05:39:02.119Z,61.32
2019-06-07T05:41:29.009Z,61.18
2019-06-07T05:44:12.285Z,60.92
2019-06-07T05:46:24.313Z,60.67
2019-06-07T05:48:51.041Z,60.63
2019-06-07T05:51:18.581Z,60.56
2019-06-07T05:53:46.211Z,60.30
2019-06-07T05:56:13.640Z,60.25
2019-06-07T05:58:42.762Z,60.59
2019-06-07T06:03:38.149Z,59.87
2019-06-07T06:06:04.880Z,59.73
2019-06-07T06:08:31.618Z,59.76
2019-06-07T06:10:58.496Z,59.21
2019-06-07T06:13:25.264Z,58.42
2019-06-07T06:16:01.388Z,58.28
2019-06-07T06:18:20.583Z,58.07
2019-06-07T06:21:12.755Z,57.81
2019-06-07T06:23:15.873Z,57.08
2019-06-07T06:25:50.935Z,56.59
2019-06-07T06:28:12.928Z,56.64
2019-06-07T06:30:41.199Z,56.08
2019-06-07T06:33:27.178Z,55.88
2019-06-07T06:35:37.559Z,55.56
2019-06-07T06:38:04.501Z,55.48
2019-06-07T06:40:31.312Z,55.16
2019-06-07T06:42:58.035Z,55.04
2019-06-07T06:45:24.949Z,54.70
2019-06-07T06:47:51.767Z,54.21
2019-06-07T06:50:19.017Z,53.81
2019-06-07T06:52:48.516Z,53.66
2019-06-07T06:55:14.811Z,53.77
2019-06-07T06:57:41.863Z,53.32
2019-06-07T07:00:13.180Z,52.89
2019-06-07T07:03:26.777Z,52.12
2019-06-07T07:05:10.737Z,52.56
2019-06-07T07:07:37.975Z,52.37
2019-06-07T07:10:08.172Z,52.41
2019-06-07T07:12:34.915Z,52.24
2019-06-07T07:15:06.374Z,51.83
2019-06-07T07:17:50.850Z,51.90
2019-06-07T07:20:05.671Z,51.89
2019-06-07T07:22:32.387Z,51.79
2019-06-07T07:24:59.273Z,51.21
2019-06-07T07:27:25.985Z,50.42
2019-06-07T07:30:29.544Z,51.12
2019-06-07T07:32:21.362Z,51.21
2019-06-07T07:34:51.892Z,50.41
2019-06-07T07:37:16.617Z,50.60
2019-06-07T07:39:46.356Z,51.08
2019-06-07T07:42:20.660Z,49.64
2019-06-07T07:44:40.560Z,50.30
2019-06-07T07:47:07.549Z,49.88
2019-06-07T07:49:34.270Z,49.51
2019-06-07T07:52:01.006Z,48.00
2019-06-07T07:54:27.891Z,48.26
2019-06-07T07:56:56.044Z,48.03
2019-06-07T07:59:41.090Z,49.20
2019-06-07T08:01:55.560Z,48.80
2019-06-07T08:04:39.744Z,48.39
2019-06-07T08:06:51.167Z,49.35
2019-06-07T08:09:17.726Z,49.39
2019-06-07T08:11:47.226Z,49.04
2019-06-07T08:14:12.969Z,48.75
2019-06-07T08:16:39.894Z,49.10
2019-06-07T08:19:06.605Z,49.03
2019-06-07T08:21:33.333Z,48.38
2019-06-07T08:24:04.235Z,48.40
2019-06-07T08:26:28.776Z,48.64
2019-06-07T08:28:58.906Z,48.53
2019-06-07T08:31:24.107Z,48.67
2019-06-07T08:33:52.618Z,48.80
2019-06-07T08:36:30.147Z,48.92
2019-06-07T08:38:52.382Z,47.98
2019-06-07T08:41:16.634Z,48.47
2019-06-07T08:43:43.315Z,48.25
2019-06-07T08:46:10.355Z,47.35
2019-06-07T08:48:37.120Z,46.88
2019-06-07T08:51:08.300Z,46.51
2019-06-07T08:53:32.622Z,46.61
2019-06-07T08:56:08.825Z,46.59
2019-06-07T08:58:27.877Z,45.82
2019-06-07T09:00:56.318Z,45.96
2019-06-07T09:03:23.318Z,46.48
2019-06-07T09:05:50.006Z,45.64
2019-06-07T09:08:29.795Z,45.06
2019-06-07T09:10:46.561Z,44.77
2019-06-07T09:13:13.390Z,45.43
2019-06-07T09:15:40.231Z,44.31
2019-06-07T09:18:37.951Z,43.86
2019-06-07T09:20:48.595Z,44.29
2019-06-07T09:23:17.150Z,44.69
2019-06-07T09:25:56.538Z,45.05
2019-06-07T09:28:19.484Z,44.93
2019-06-07T09:30:43.914Z,44.50
2019-06-07T09:33:11.404Z,44.54
2019-06-07T09:35:39.083Z,45.14
2019-06-07T09:38:17.642Z,44.71
2019-06-07T09:40:34.351Z,44.50
2019-06-07T09:43:47.288Z,44.31
2019-06-07T09:45:29.695Z,43.84
2019-06-07T09:47:57.060Z,44.66
2019-06-07T09:50:25.008Z,43.59
2019-06-07T09:52:58.451Z,43.86
2019-06-07T09:55:24.695Z,42.62
2019-06-07T09:57:48.998Z,42.69
2019-06-07T10:00:40.158Z,43.92
2019-06-07T10:02:44.977Z,43.28
2019-06-07T10:05:14.295Z,43.85
2019-06-07T10:07:59.318Z,44.44
2019-06-07T10:12:38.630Z,43.58
2019-06-07T10:15:07.041Z,41.93
2019-06-07T10:17:33.871Z,41.74
2019-06-07T10:20:02.549Z,42.92
2019-06-07T10:22:29.177Z,44.28
2019-06-07T10:24:55.898Z,44.09
2019-06-07T10:27:22.741Z,42.10
2019-06-07T10:29:49.446Z,41.14
2019-06-07T10:32:16.178Z,41.37
2019-06-07T10:34:43.443Z,41.74
2019-06-07T10:37:14.836Z,43.02
2019-06-07T10:39:48.776Z,41.40
2019-06-07T10:42:09.676Z,40.07
2019-06-07T10:44:36.547Z,41.43
2019-06-07T10:47:03.973Z,41.37
2019-06-07T10:49:30.895Z,40.55
2019-06-07T10:51:57.631Z,40.84
2019-06-07T10:54:30.298Z,40.96
2019-06-07T10:56:53.098Z,40.00
2019-06-07T10:59:19.831Z,41.16
2019-06-07T11:01:47.002Z,39.45
2019-06-07T11:04:13.959Z,39.90
2019-06-07T11:06:40.767Z,39.15
2019-06-07T11:09:07.914Z,38.28
2019-06-07T11:11:34.697Z,39.35
2019-06-07T11:14:02.114Z,38.80
2019-06-07T11:16:28.861Z,38.61
2019-06-07T11:18:55.636Z,38.28
2019-06-07T11:21:22.385Z,37.99
2019-06-07T11:23:49.102Z,38.12
2019-06-07T11:26:16.009Z,37.90
2019-06-07T11:28:42.736Z,37.30
2019-06-07T11:31:10.755Z,37.99
2019-06-07T11:33:37.991Z,37.57
2019-06-07T11:36:04.893Z,36.73
2019-06-07T11:38:31.925Z,37.29
2019-06-07T11:40:58.670Z,36.47
2019-06-07T11:43:25.930Z,35.87
2019-06-07T11:45:52.673Z,35.08
2019-06-07T11:48:19.563Z,35.49
2019-06-07T11:50:46.299Z,35.42
2019-06-07T11:53:13.042Z,34.63
2019-06-07T11:55:39.831Z,33.91
2019-06-07T11:58:12.702Z,34.57
2019-06-07T12:00:36.551Z,33.96
2019-06-07T12:03:03.410Z,33.92
2019-06-07T12:05:30.180Z,33.08
2019-06-07T12:07:57.242Z,32.20
2019-06-07T12:10:24.202Z,32.82
2019-06-07T12:12:50.943Z,32.55
2019-06-07T12:15:19.174Z,31.77
2019-06-07T12:17:46.171Z,31.73
2019-06-07T12:20:16.742Z,31.92
2019-06-07T12:22:43.852Z,31.41
2019-06-07T12:25:12.474Z,30.92
2019-06-07T12:27:40.393Z,30.58
2019-06-07T12:30:11.322Z,29.99
2019-06-07T12:32:36.555Z,30.23
2019-06-07T12:35:08.674Z,29.56
2019-06-07T12:37:43.975Z,29.27
2019-06-07T12:40:06.307Z,29.32
2019-06-07T12:42:33.073Z,29.53
2019-06-07T12:44:59.811Z,29.15
2019-06-07T12:47:26.622Z,29.01
2019-06-07T12:49:53.363Z,28.18
2019-06-07T12:52:22.735Z,28.87
2019-06-07T12:54:48.670Z,28.73
2019-06-07T12:57:16.216Z,28.29
2019-06-07T12:59:43.011Z,29.43
2019-06-07T13:02:10.206Z,29.03
2019-06-07T13:04:36.939Z,27.71
2019-06-07T13:07:03.779Z,28.20
2019-06-07T13:09:30.675Z,27.57
2019-06-07T13:11:57.391Z,27.54
2019-06-07T13:14:24.137Z,27.45
2019-06-07T13:16:50.987Z,27.81
2019-06-07T13:19:18.069Z,27.62
2019-06-07T13:21:44.908Z,27.11
2019-06-07T13:24:11.778Z,26.67
2019-06-07T13:26:38.512Z,26.73
2019-06-07T13:29:05.431Z,26.35
2019-06-07T13:31:32.246Z,27.10
2019-06-07T13:33:58.990Z,27.49
2019-06-07T13:36:25.762Z,27.54
2019-06-07T13:38:52.566Z,28.12
2019-06-07T13:41:35.299Z,27.48
2019-06-07T13:43:51.360Z,27.54
2019-06-07T13:46:16.908Z,27.67
2019-06-07T13:48:43.785Z,28.03
2019-06-07T13:51:10.538Z,28.09
2019-06-07T13:53:37.436Z,28.17
2019-06-07T13:56:04.169Z,27.50
2019-06-07T13:58:30.911Z,27.39
2019-06-07T14:00:58.649Z,27.96
2019-06-07T14:03:30.470Z,27.22
2019-06-07T14:05:53.984Z,27.75
2019-06-07T14:08:21.081Z,27.43
2019-06-07T14:10:47.931Z,28.67
2019-06-07T14:13:14.674Z,27.41
2019-06-07T14:15:41.555Z,27.57
2019-06-07T14:18:08.295Z,27.15
2019-06-07T14:20:35.044Z,27.25
2019-06-07T14:23:01.841Z,27.30
2019-06-07T14:25:29.376Z,27.70
2019-06-07T14:27:56.216Z,28.12
2019-06-07T14:30:23.976Z,28.29
2019-06-07T14:32:50.899Z,27.78
2019-06-07T14:35:17.661Z,27.88
2019-06-07T14:37:44.519Z,28.22
2019-06-07T14:40:14.520Z,27.76
2019-06-07T14:42:41.258Z,28.05
2019-06-07T14:45:10.670Z,27.65
2019-06-07T14:47:37.385Z,27.74
2019-06-07T14:50:08.273Z,27.11
2019-06-07T14:52:35.330Z,27.49
2019-06-07T14:55:04.577Z,27.95
2019-06-07T14:57:31.313Z,27.79
2019-06-07T14:59:58.129Z,28.90
2019-06-07T15:02:26.266Z,28.24
2019-06-07T15:04:53.522Z,28.46
2019-06-07T15:07:20.430Z,27.99
2019-06-07T15:09:47.181Z,28.53
2019-06-07T15:12:24.500Z,28.42
2019-06-07T15:14:42.590Z,28.81
2019-06-07T15:17:09.488Z,28.80
2019-06-07T15:19:36.516Z,29.07
2019-06-07T15:22:03.598Z,29.07
2019-06-07T15:24:33.965Z,29.73
2019-06-07T15:26:58.841Z,29.99
2019-06-07T15:29:25.724Z,30.18
2019-06-07T15:31:52.469Z,30.76
2019-06-07T15:34:19.762Z,30.46
2019-06-07T15:36:51.849Z,30.86
2019-06-07T15:39:18.621Z,30.71
2019-06-07T15:41:45.347Z,30.89
2019-06-07T15:44:12.354Z,31.04
2019-06-07T15:46:40.175Z,31.48
2019-06-07T15:49:07.277Z,31.33
2019-06-07T15:51:34.501Z,31.83
2019-06-07T15:54:01.265Z,32.34
2019-06-07T15:56:27.979Z,32.69
2019-06-07T15:58:54.892Z,32.57
2019-06-07T16:01:21.841Z,33.43
2019-06-07T16:03:51.364Z,33.49
2019-06-07T16:06:19.650Z,33.98
2019-06-07T16:08:46.488Z,33.63
2019-06-07T16:11:13.214Z,34.00
2019-06-07T16:13:40.806Z,33.80
2019-06-07T16:16:07.641Z,33.78
2019-06-07T16:18:35.218Z,33.87
2019-06-07T16:21:02.386Z,33.69
2019-06-07T16:23:29.137Z,33.82
2019-06-07T16:25:55.885Z,33.67
2019-06-07T16:28:24.484Z,34.24
2019-06-07T16:30:51.158Z,34.43
2019-06-07T16:33:18.724Z,34.83
2019-06-07T16:35:47.253Z,34.83
2019-06-07T16:38:13.960Z,35.20
2019-06-07T16:40:42.393Z,35.68
2019-06-07T16:43:17.906Z,35.77
2019-06-07T16:45:44.992Z,35.75
2019-06-07T16:48:11.790Z,36.27
2019-06-07T16:50:38.807Z,36.49
2019-06-07T16:53:05.517Z,36.81
2019-06-07T16:55:32.231Z,36.86
2019-06-07T16:57:59.238Z,37.54
2019-06-07T17:00:28.154Z,37.79
2019-06-07T17:02:54.855Z,38.13
2019-06-07T17:05:28.461Z,38.21
2019-06-07T17:07:55.073Z,38.59
2019-06-07T17:10:21.906Z,39.26
2019-06-07T17:12:49.101Z,39.45
2019-06-07T17:15:17.080Z,39.71
2019-06-07T17:17:45.127Z,40.23
2019-06-07T17:20:13.024Z,41.00
2019-06-07T17:22:41.560Z,40.76
2019-06-07T17:25:09.587Z,40.80
2019-06-07T17:27:36.479Z,41.00
2019-06-07T17:30:09.923Z,41.16
2019-06-07T17:32:48.634Z,41.16
2019-06-07T17:35:06.746Z,41.41
2019-06-07T17:37:33.521Z,41.53
2019-06-07T17:40:00.219Z,41.94
2019-06-07T17:42:27.019Z,41.97
2019-06-07T17:44:53.742Z,42.07
2019-06-07T17:47:20.493Z,42.25
2019-06-07T17:49:47.824Z,42.81
2019-06-07T17:52:14.600Z,42.67
2019-06-07T17:54:41.782Z,42.77
2019-06-07T17:57:08.647Z,42.84
2019-06-07T17:59:35.390Z,42.99
2019-06-07T18:02:14.036Z,43.16
2019-06-07T18:04:30.795Z,43.33
2019-06-07T18:06:58.146Z,43.53
2019-06-07T18:09:25.342Z,43.58
2019-06-07T18:11:52.355Z,43.79
2019-06-07T18:14:19.261Z,44.01
2019-06-07T18:16:46.424Z,43.91
2019-06-07T18:19:13.309Z,44.06
2019-06-07T18:21:40.048Z,44.20
2019-06-07T18:24:06.777Z,44.29
2019-06-07T18:26:33.651Z,44.32
2019-06-07T18:29:00.370Z,44.51
2019-06-07T18:31:27.111Z,44.49
2019-06-07T18:33:55.048Z,44.58
2019-06-07T18:36:21.848Z,44.73
2019-06-07T18:38:48.979Z,44.79
2019-06-07T18:41:15.975Z,45.07
2019-06-07T18:43:42.748Z,45.02
2019-06-07T18:46:09.466Z,45.29
2019-06-07T18:48:36.353Z,45.35
2019-06-07T18:51:03.234Z,45.58
2019-06-07T18:53:29.901Z,45.69
2019-06-07T18:55:58.061Z,45.88
2019-06-07T18:58:24.890Z,46.01
2019-06-07T19:00:51.635Z,46.04
2019-06-07T19:03:18.671Z,46.29
2019-06-07T19:05:51.972Z,46.60
2019-06-07T19:08:19.339Z,46.71
2019-06-07T19:10:48.674Z,47.00
2019-06-07T19:13:15.519Z,47.29
2019-06-07T19:15:43.458Z,47.54
2019-06-07T19:18:10.451Z,47.66
2019-06-07T19:20:37.206Z,47.59
2019-06-07T19:23:04.115Z,47.57
2019-06-07T19:25:30.933Z,47.57
2019-06-07T19:27:58.973Z,47.52
2019-06-07T19:30:26.021Z,47.80
2019-06-07T19:32:53.163Z,47.65
2019-06-07T19:35:20.254Z,47.56
2019-06-07T19:37:47.204Z,47.61
2019-06-07T19:40:17.395Z,47.72
2019-06-07T19:42:44.152Z,47.69
2019-06-07T19:47:40.374Z,47.69
2019-06-07T19:50:07.963Z,47.83
2019-06-07T19:52:34.781Z,47.86
2019-06-07T19:55:06.714Z,48.08
2019-06-07T19:57:30.540Z,48.22
2019-06-07T19:59:59.596Z,48.35
2019-06-07T20:02:26.575Z,48.43
2019-06-07T20:04:54.873Z,48.72
2019-06-07T20:07:21.925Z,48.66
2019-06-07T20:09:48.664Z,48.79
2019-06-07T20:12:35.122Z,48.92
2019-06-07T20:15:25.162Z,49.02
2019-06-07T20:17:33.715Z,49.11
2019-06-07T20:20:00.499Z,49.14
2019-06-07T20:22:27.405Z,49.32
2019-06-07T20:24:54.163Z,49.46
2019-06-07T20:27:20.912Z,49.29
2019-06-07T20:29:47.825Z,49.52
2019-06-07T20:32:14.547Z,49.68
2019-06-07T20:34:44.357Z,49.57
2019-06-07T20:37:09.976Z,49.65
2019-06-07T20:39:36.724Z,49.83
2019-06-07T20:42:03.609Z,49.72
2019-06-07T20:44:30.437Z,49.72
2019-06-07T20:46:57.878Z,50.08
2019-06-07T20:49:24.618Z,50.20
2019-06-07T20:51:51.416Z,50.54
2019-06-07T20:54:18.138Z,50.72
2019-06-07T20:56:44.865Z,50.85
2019-06-07T20:59:11.770Z,50.83
2019-06-07T21:01:38.517Z,50.88
2019-06-07T21:04:05.277Z,50.95
2019-06-07T21:06:32.473Z,51.05
2019-06-07T21:08:59.369Z,51.07
2019-06-07T21:11:26.149Z,51.07
2019-06-07T21:13:52.982Z,51.15
2019-06-07T21:16:19.733Z,51.24
2019-06-07T21:18:46.467Z,51.22
2019-06-07T21:21:13.362Z,51.16
2019-06-07T21:23:40.087Z,51.38
2019-06-07T21:26:06.929Z,51.27
2019-06-07T21:28:33.795Z,51.37
2019-06-07T21:31:00.538Z,51.43
2019-06-07T21:33:27.374Z,51.32
2019-06-07T21:35:54.141Z,51.26
2019-06-07T21:38:20.882Z,51.47
2019-06-07T21:40:47.641Z,51.42
2019-06-07T21:43:14.511Z,51.60
2019-06-07T21:45:41.594Z,51.63
2019-06-07T21:48:08.882Z,51.60
2019-06-07T21:50:35.724Z,51.58
2019-06-07T21:53:02.510Z,51.83
2019-06-07T21:55:29.196Z,51.79
2019-06-07T21:57:56.086Z,52.09
2019-06-07T22:00:48.744Z,52.26
2019-06-07T22:03:15.498Z,52.23
2019-06-07T22:05:42.216Z,52.37
2019-06-07T22:08:10.175Z,52.47
2019-06-07T22:10:37.358Z,52.56
2019-06-07T22:13:04.096Z,52.68
2019-06-07T22:15:35.368Z,52.92
2019-06-07T22:17:59.415Z,52.94
2019-06-07T22:20:26.131Z,52.97
2019-06-07T22:22:52.890Z,53.00
2019-06-07T22:25:19.797Z,53.24
2019-06-07T22:27:46.534Z,53.20
2019-06-07T22:30:14.559Z,53.16
2019-06-07T22:32:41.494Z,53.36
2019-06-07T22:35:09.152Z,53.23
2019-06-07T22:37:35.856Z,53.27
2019-06-07T22:40:08.593Z,53.29
2019-06-07T22:42:35.693Z,53.12
2019-06-07T22:45:04.647Z,53.24
2019-06-07T22:47:31.634Z,53.47
2019-06-07T22:49:58.375Z,53.58
2019-06-07T22:52:25.108Z,53.55
2019-06-07T22:54:51.953Z,53.61
2019-06-07T22:57:18.695Z,53.61
2019-06-07T22:59:45.428Z,53.69
2019-06-07T23:02:12.654Z,53.88
2019-06-07T23:04:39.537Z,54.10
2019-06-07T23:07:06.289Z,54.06
2019-06-07T23:09:33.105Z,54.20
2019-06-07T23:11:59.838Z,54.55
2019-06-07T23:14:26.863Z,54.48
2019-06-07T23:16:55.884Z,54.44
2019-06-07T23:19:22.317Z,54.74
2019-06-07T23:21:49.055Z,54.75
2019-06-07T23:24:16.512Z,54.67
2019-06-07T23:26:43.286Z,54.53
2019-06-07T23:29:10.295Z,54.53
2019-06-07T23:31:37.194Z,54.54
2019-06-07T23:34:03.932Z,54.65
2019-06-07T23:36:30.683Z,54.54
2019-06-07T23:38:57.466Z,54.68
2019-06-07T23:41:24.205Z,54.60
2019-06-07T23:43:50.936Z,54.67
2019-06-07T23:46:17.826Z,54.68
2019-06-07T23:48:44.610Z,54.75
2019-06-07T23:51:11.535Z,54.55
2019-06-07T23:53:38.481Z,54.39
2019-06-07T23:56:05.177Z,54.45
2019-06-07T23:58:31.890Z,54.44
